createdAt,value
2022-09-10T00:00:12.908Z,51.20
2022-09-10T00:01:15.722Z,51.30
2022-09-10T00:02:17.906Z,51.30
2022-09-10T00:03:21.116Z,51.20
2022-09-10T00:04:23.257Z,51.20
2022-09-10T00:05:25.434Z,51.20
2022-09-10T00:06:33.083Z,51.40
2022-09-10T00:07:35.287Z,51.60
2022-09-10T00:08:38.328Z,51.60
2022-09-10T00:09:40.521Z,51.70
2022-09-10T00:10:43.811Z,51.90
2022-09-10T00:11:46.445Z,51.90
2022-09-10T00:12:48.564Z,52.00
2022-09-10T00:13:50.825Z,52.00
2022-09-10T00:14:54.299Z,51.90
2022-09-10T00:15:56.918Z,51.90
2022-09-10T00:16:59.142Z,51.90
2022-09-10T00:18:01.307Z,51.80
2022-09-10T00:19:03.661Z,51.80
2022-09-10T00:20:06.104Z,51.70
2022-09-10T00:21:10.415Z,51.70
2022-09-10T00:22:13.201Z,51.80
2022-09-10T00:23:15.915Z,51.70
2022-09-10T00:24:18.083Z,51.70
2022-09-10T00:25:20.625Z,51.80
2022-09-10T00:26:24.114Z,51.80
2022-09-10T00:27:26.754Z,52.00
2022-09-10T00:28:29.331Z,51.90
2022-09-10T00:29:31.707Z,52.00
2022-09-10T00:30:33.890Z,52.00
2022-09-10T00:31:36.943Z,52.00
2022-09-10T00:32:39.580Z,52.20
2022-09-10T00:33:42.089Z,52.30
2022-09-10T00:34:44.337Z,52.40
2022-09-10T00:35:46.672Z,52.50
2022-09-10T00:36:48.820Z,52.40
2022-09-10T00:37:51.185Z,52.50
2022-09-10T00:38:54.848Z,52.60
2022-09-10T00:39:57.012Z,52.40
2022-09-10T00:41:03.471Z,52.40
2022-09-10T00:42:05.687Z,52.50
2022-09-10T00:43:16.532Z,52.60
2022-09-10T00:44:37.308Z,52.50
2022-09-10T00:45:41.012Z,52.40
2022-09-10T00:46:50.435Z,52.30
2022-09-10T00:47:54.576Z,52.20
2022-09-10T00:48:58.402Z,52.30
2022-09-10T00:50:21.589Z,52.10
2022-09-10T00:51:26.235Z,52.20
2022-09-10T00:52:29.317Z,52.10
2022-09-10T00:53:31.765Z,52.10
2022-09-10T00:54:36.080Z,52.10
2022-09-10T00:55:39.685Z,52.00
2022-09-10T00:56:43.038Z,52.00
2022-09-10T00:57:47.545Z,52.10
2022-09-10T00:58:50.044Z,52.20
2022-09-10T00:59:54.817Z,52.20
2022-09-10T01:01:01.247Z,52.30
2022-09-10T01:02:03.991Z,52.30
2022-09-10T01:03:07.762Z,52.30
2022-09-10T01:04:10.629Z,52.20
2022-09-10T01:05:13.439Z,52.10
2022-09-10T01:06:15.896Z,52.00
2022-09-10T01:07:18.879Z,51.90
2022-09-10T01:08:21.349Z,51.90
2022-09-10T01:09:24.103Z,52.40
2022-09-10T01:10:29.037Z,51.90
2022-09-10T01:11:42.389Z,51.90
2022-09-10T01:13:03.229Z,51.80
2022-09-10T01:14:13.525Z,51.90
2022-09-10T01:15:18.624Z,51.90
2022-09-10T01:16:49.845Z,52.00
2022-09-10T01:18:03.511Z,52.00
2022-09-10T01:19:10.769Z,51.90
2022-09-10T01:22:28.986Z,51.90
2022-09-10T01:23:41.489Z,51.90
2022-09-10T01:24:51.679Z,51.80
2022-09-10T01:26:06.551Z,51.70
2022-09-10T01:27:27.188Z,51.70
2022-09-10T01:28:36.272Z,51.60
2022-09-10T01:29:47.131Z,51.60
2022-09-10T01:30:53.295Z,51.60
2022-09-10T01:32:04.974Z,51.60
2022-09-10T01:33:16.709Z,51.40
2022-09-10T01:34:41.750Z,51.40
2022-09-10T01:35:46.372Z,51.30
2022-09-10T01:36:49.057Z,51.30
2022-09-10T01:37:57.215Z,51.30
2022-09-10T01:39:00.531Z,51.30
2022-09-10T01:40:03.751Z,51.30
2022-09-10T01:41:10.153Z,51.20
2022-09-10T01:42:15.683Z,51.20
2022-09-10T01:43:18.408Z,51.20
2022-09-10T01:44:43.565Z,51.30
2022-09-10T01:45:47.115Z,51.30
2022-09-10T01:46:57.547Z,51.20
2022-09-10T01:47:59.672Z,51.20
2022-09-10T01:49:13.883Z,51.20
2022-09-10T01:50:21.554Z,51.20
2022-09-10T01:51:26.841Z,51.20
2022-09-10T01:52:42.166Z,51.20
2022-09-10T01:53:51.002Z,51.10
2022-09-10T01:55:17.118Z,51.20
2022-09-10T01:56:27.820Z,51.10
2022-09-10T01:57:39.181Z,51.00
2022-09-10T01:58:43.406Z,51.10
2022-09-10T02:00:02.351Z,51.10
2022-09-10T02:01:10.851Z,51.10
2022-09-10T02:02:15.493Z,51.00
2022-09-10T02:03:20.536Z,51.10
2022-09-10T02:04:24.804Z,51.10
2022-09-10T02:05:29.013Z,51.10
2022-09-10T02:06:34.448Z,51.20
2022-09-10T02:07:38.155Z,51.20
2022-09-10T02:08:41.167Z,51.20
2022-09-10T02:09:43.443Z,51.30
2022-09-10T02:10:49.997Z,51.20
2022-09-10T02:11:53.372Z,51.30
2022-09-10T02:13:09.047Z,51.50
2022-09-10T02:14:23.093Z,51.40
2022-09-10T02:15:44.620Z,51.20
2022-09-10T02:16:55.433Z,51.30
2022-09-10T02:17:58.839Z,51.40
2022-09-10T02:19:02.368Z,51.50
2022-09-10T02:20:06.876Z,51.80
2022-09-10T02:21:10.512Z,51.80
2022-09-10T02:22:12.808Z,51.80
2022-09-10T02:23:18.263Z,51.70
2022-09-10T02:24:21.177Z,51.80
2022-09-10T02:25:24.324Z,52.00
2022-09-10T02:26:34.826Z,52.00
2022-09-10T02:27:38.217Z,52.00
2022-09-10T02:28:40.843Z,52.00
2022-09-10T02:29:43.184Z,52.00
2022-09-10T02:30:45.399Z,52.00
2022-09-10T02:31:47.654Z,52.10
2022-09-10T02:32:50.204Z,52.20
2022-09-10T02:33:52.511Z,52.10
2022-09-10T02:34:54.738Z,52.00
2022-09-10T02:35:57.317Z,52.10
2022-09-10T02:36:59.719Z,52.20
2022-09-10T02:38:01.963Z,52.00
2022-09-10T02:39:04.901Z,52.00
2022-09-10T02:40:07.625Z,52.10
2022-09-10T02:41:09.956Z,52.20
2022-09-10T02:42:14.263Z,52.20
2022-09-10T02:43:17.200Z,52.00
2022-09-10T02:44:19.407Z,52.00
2022-09-10T02:45:21.626Z,52.00
2022-09-10T02:46:23.802Z,52.00
2022-09-10T02:47:26.316Z,52.00
2022-09-10T02:48:30.987Z,51.90
2022-09-10T02:49:34.619Z,51.90
2022-09-10T02:50:36.824Z,52.00
2022-09-10T02:51:42.265Z,52.00
2022-09-10T02:52:46.193Z,52.10
2022-09-10T02:53:49.255Z,52.10
2022-09-10T02:54:52.129Z,52.10
2022-09-10T02:55:54.391Z,52.10
2022-09-10T02:56:56.734Z,52.10
2022-09-10T02:57:59.095Z,52.10
2022-09-10T02:59:01.485Z,52.00
2022-09-10T03:00:04.934Z,52.10
2022-09-10T03:01:12.122Z,52.00
2022-09-10T03:02:14.689Z,52.00
2022-09-10T03:03:17.222Z,52.00
2022-09-10T03:04:19.463Z,52.00
2022-09-10T03:05:21.765Z,52.00
2022-09-10T03:06:24.724Z,51.90
2022-09-10T03:07:26.934Z,51.70
2022-09-10T03:08:29.119Z,51.70
2022-09-10T03:09:31.368Z,51.60
2022-09-10T03:10:33.724Z,51.50
2022-09-10T03:11:40.494Z,51.60
2022-09-10T03:12:42.728Z,51.50
2022-09-10T03:13:47.839Z,51.50
2022-09-10T03:14:50.237Z,51.40
2022-09-10T03:15:52.871Z,51.40
2022-09-10T03:16:56.831Z,51.30
2022-09-10T03:18:00.375Z,51.30
2022-09-10T03:19:02.934Z,51.40
2022-09-10T03:20:06.938Z,51.40
2022-09-10T03:21:09.178Z,51.40
2022-09-10T03:22:12.488Z,51.30
2022-09-10T03:23:14.742Z,51.30
2022-09-10T03:24:16.964Z,51.20
2022-09-10T03:25:22.612Z,51.20
2022-09-10T03:26:25.408Z,51.20
2022-09-10T03:27:28.500Z,51.20
2022-09-10T03:28:31.070Z,51.20
2022-09-10T03:29:33.474Z,51.30
2022-09-10T03:30:36.528Z,51.40
2022-09-10T03:31:39.714Z,51.50
2022-09-10T03:32:42.046Z,51.70
2022-09-10T03:33:46.012Z,51.60
2022-09-10T03:34:49.378Z,51.70
2022-09-10T03:35:54.176Z,51.80
2022-09-10T03:36:56.390Z,51.90
2022-09-10T03:37:58.590Z,51.90
2022-09-10T03:39:00.911Z,52.00
2022-09-10T03:40:06.957Z,52.20
2022-09-10T03:41:09.716Z,52.20
2022-09-10T03:42:12.191Z,52.00
2022-09-10T03:43:15.580Z,51.90
2022-09-10T03:44:17.938Z,51.90
2022-09-10T03:45:20.198Z,52.00
2022-09-10T03:46:22.699Z,52.00
2022-09-10T03:47:25.340Z,52.00
2022-09-10T03:48:29.391Z,52.00
2022-09-10T03:49:31.589Z,52.40
2022-09-10T03:50:33.906Z,52.30
2022-09-10T03:51:36.274Z,51.80
2022-09-10T03:52:38.844Z,51.70
2022-09-10T03:53:41.046Z,51.70
2022-09-10T03:54:45.619Z,51.50
2022-09-10T03:55:49.001Z,51.40
2022-09-10T03:56:52.311Z,51.30
2022-09-10T03:57:54.459Z,51.30
2022-09-10T03:58:57.418Z,51.20
2022-09-10T04:00:02.215Z,51.30
2022-09-10T04:01:06.265Z,51.30
2022-09-10T04:02:12.097Z,51.40
2022-09-10T04:03:14.530Z,51.50
2022-09-10T04:04:17.331Z,51.60
2022-09-10T04:05:19.916Z,51.70
2022-09-10T04:06:22.148Z,51.70
2022-09-10T04:07:24.348Z,51.60
2022-09-10T04:08:26.547Z,51.60
2022-09-10T04:09:29.480Z,51.60
2022-09-10T04:10:33.911Z,51.50
2022-09-10T04:11:36.272Z,51.60
2022-09-10T04:12:39.132Z,51.50
2022-09-10T04:13:41.369Z,51.50
2022-09-10T04:14:46.533Z,51.50
2022-09-10T04:15:50.656Z,51.30
2022-09-10T04:16:52.884Z,51.40
2022-09-10T04:17:55.046Z,51.40
2022-09-10T04:18:59.808Z,51.40
2022-09-10T04:20:03.767Z,51.40
2022-09-10T04:21:08.957Z,51.50
2022-09-10T04:22:12.454Z,51.60
2022-09-10T04:23:16.255Z,51.80
2022-09-10T04:24:19.098Z,51.90
2022-09-10T04:25:21.487Z,51.90
2022-09-10T04:26:23.638Z,52.00
2022-09-10T04:27:26.601Z,51.90
2022-09-10T04:28:28.778Z,52.00
2022-09-10T04:29:31.610Z,51.90
2022-09-10T04:30:34.214Z,51.80
2022-09-10T04:31:36.687Z,51.70
2022-09-10T04:32:45.578Z,51.70
2022-09-10T04:33:48.878Z,51.80
2022-09-10T04:34:54.931Z,51.80
2022-09-10T04:36:00.419Z,51.80
2022-09-10T04:37:02.638Z,51.90
2022-09-10T04:38:07.135Z,51.90
2022-09-10T04:39:14.371Z,51.80
2022-09-10T04:40:17.244Z,51.90
2022-09-10T04:41:19.587Z,52.10
2022-09-10T04:42:22.894Z,52.00
2022-09-10T04:43:26.567Z,52.00
2022-09-10T04:44:29.514Z,51.90
2022-09-10T04:45:34.503Z,52.00
2022-09-10T04:46:36.962Z,52.00
2022-09-10T04:47:42.502Z,52.00
2022-09-10T04:48:44.980Z,52.00
2022-09-10T04:49:50.825Z,52.00
2022-09-10T04:51:14.861Z,52.10
2022-09-10T04:52:20.138Z,51.90
2022-09-10T04:53:22.471Z,52.00
2022-09-10T04:54:25.880Z,52.00
2022-09-10T04:55:29.896Z,51.90
2022-09-10T04:56:32.770Z,51.90
2022-09-10T04:57:36.038Z,52.10
2022-09-10T04:58:39.284Z,52.10
2022-09-10T04:59:42.123Z,52.10
2022-09-10T05:00:44.381Z,52.10
2022-09-10T05:01:50.225Z,52.30
2022-09-10T05:02:53.222Z,52.30
2022-09-10T05:03:55.928Z,52.40
2022-09-10T05:04:59.323Z,52.20
2022-09-10T05:06:02.335Z,52.30
2022-09-10T05:07:04.554Z,52.10
2022-09-10T05:08:08.129Z,52.10
2022-09-10T05:09:11.931Z,52.20
2022-09-10T05:10:15.282Z,52.20
2022-09-10T05:11:19.763Z,52.50
2022-09-10T05:12:23.241Z,52.50
2022-09-10T05:13:25.742Z,52.40
2022-09-10T05:14:29.293Z,52.50
2022-09-10T05:15:31.773Z,52.50
2022-09-10T05:16:35.041Z,52.40
2022-09-10T05:17:37.423Z,52.10
2022-09-10T05:18:40.335Z,52.30
2022-09-10T05:19:43.537Z,52.20
2022-09-10T05:20:46.013Z,52.10
2022-09-10T05:21:51.431Z,52.00
2022-09-10T05:22:56.731Z,52.10
2022-09-10T05:23:59.051Z,52.10
2022-09-10T05:25:02.165Z,52.00
2022-09-10T05:26:04.339Z,52.00
2022-09-10T05:27:06.676Z,51.90
2022-09-10T05:28:09.566Z,51.90
2022-09-10T05:29:12.525Z,51.90
2022-09-10T05:30:15.487Z,51.90
2022-09-10T05:31:17.926Z,51.80
2022-09-10T05:32:20.741Z,51.80
2022-09-10T05:33:23.061Z,51.80
2022-09-10T05:34:25.500Z,51.80
2022-09-10T05:35:28.955Z,51.70
2022-09-10T05:36:32.034Z,52.10
2022-09-10T05:37:34.599Z,51.60
2022-09-10T05:38:39.934Z,51.60
2022-09-10T05:39:42.571Z,51.50
2022-09-10T05:40:44.832Z,51.50
2022-09-10T05:41:47.175Z,51.60
2022-09-10T05:42:49.542Z,51.60
2022-09-10T05:43:51.931Z,51.60
2022-09-10T05:44:54.217Z,51.60
2022-09-10T05:45:56.508Z,51.60
2022-09-10T05:46:58.666Z,51.50
2022-09-10T05:48:00.851Z,51.50
2022-09-10T05:49:03.382Z,51.50
2022-09-10T05:50:06.087Z,51.50
2022-09-10T05:51:08.862Z,51.50
2022-09-10T05:52:11.177Z,51.50
2022-09-10T05:53:13.688Z,51.40
2022-09-10T05:54:16.367Z,51.30
2022-09-10T05:55:18.771Z,51.30
2022-09-10T05:56:22.309Z,51.40
2022-09-10T05:57:24.748Z,51.50
2022-09-10T05:58:27.686Z,51.50
2022-09-10T05:59:30.098Z,51.60
2022-09-10T06:00:32.528Z,51.50
2022-09-10T06:01:36.937Z,51.30
2022-09-10T06:02:41.805Z,51.30
2022-09-10T06:03:56.826Z,51.40
2022-09-10T06:05:00.583Z,51.50
2022-09-10T06:06:02.812Z,51.50
2022-09-10T06:07:09.186Z,51.40
2022-09-10T06:08:11.704Z,51.50
2022-09-10T06:09:19.285Z,51.50
2022-09-10T06:10:32.596Z,51.70
2022-09-10T06:11:34.811Z,51.70
2022-09-10T06:12:38.070Z,51.70
2022-09-10T06:13:42.134Z,51.70
2022-09-10T06:14:44.462Z,51.70
2022-09-10T06:15:46.718Z,51.70
2022-09-10T06:16:49.900Z,51.60
2022-09-10T06:17:55.403Z,51.70
2022-09-10T06:18:59.563Z,51.60
2022-09-10T06:20:02.715Z,51.60
2022-09-10T06:21:11.283Z,51.80
2022-09-10T06:22:14.497Z,51.90
2022-09-10T06:23:21.630Z,51.70
2022-09-10T06:24:25.800Z,51.70
2022-09-10T06:25:31.103Z,51.90
2022-09-10T06:26:33.307Z,51.80
2022-09-10T06:27:41.385Z,51.90
2022-09-10T06:28:44.554Z,52.00
2022-09-10T06:29:47.626Z,51.90
2022-09-10T06:30:50.195Z,52.00
2022-09-10T06:31:52.686Z,52.00
2022-09-10T06:32:55.930Z,51.80
2022-09-10T06:33:58.198Z,51.80
2022-09-10T06:35:03.930Z,51.70
2022-09-10T06:36:06.232Z,51.60
2022-09-10T06:37:08.824Z,51.60
2022-09-10T06:38:13.168Z,51.70
2022-09-10T06:39:15.443Z,51.70
2022-09-10T06:40:27.535Z,51.50
2022-09-10T06:41:31.193Z,51.30
2022-09-10T06:42:41.275Z,51.30
2022-09-10T06:43:44.122Z,51.30
2022-09-10T06:44:53.445Z,51.30
2022-09-10T06:46:40.758Z,51.30
2022-09-10T06:49:12.000Z,51.10
2022-09-10T06:50:17.585Z,51.00
2022-09-10T06:51:22.071Z,50.90
2022-09-10T06:52:28.913Z,50.90
2022-09-10T06:53:37.242Z,50.70
2022-09-10T06:54:41.431Z,50.60
2022-09-10T06:55:56.435Z,50.60
2022-09-10T06:57:01.428Z,50.80
2022-09-10T06:58:05.745Z,50.90
2022-09-10T06:59:09.505Z,51.00
2022-09-10T07:00:18.426Z,50.90
2022-09-10T07:01:25.590Z,50.90
2022-09-10T07:02:31.080Z,50.80
2022-09-10T07:03:34.855Z,50.80
2022-09-10T07:04:37.314Z,50.80
2022-09-10T07:05:40.646Z,50.80
2022-09-10T07:06:43.556Z,50.80
2022-09-10T07:07:49.488Z,50.80
2022-09-10T07:08:56.846Z,50.80
2022-09-10T07:09:59.839Z,50.80
2022-09-10T07:11:04.805Z,50.60
2022-09-10T07:12:09.423Z,51.10
2022-09-10T07:13:13.743Z,50.70
2022-09-10T07:14:17.937Z,50.60
2022-09-10T07:15:20.559Z,50.40
2022-09-10T07:16:24.403Z,50.40
2022-09-10T07:17:31.774Z,50.40
2022-09-10T07:18:35.334Z,50.40
2022-09-10T07:19:38.425Z,50.30
2022-09-10T07:20:47.798Z,50.40
2022-09-10T07:21:50.712Z,50.50
2022-09-10T07:22:53.326Z,50.40
2022-09-10T07:23:56.711Z,50.50
2022-09-10T07:25:00.192Z,50.50
2022-09-10T07:26:12.012Z,50.50
2022-09-10T07:27:19.735Z,50.70
2022-09-10T07:28:21.932Z,50.30
2022-09-10T07:29:24.373Z,50.20
2022-09-10T07:30:28.879Z,50.20
2022-09-10T07:31:33.839Z,50.30
2022-09-10T07:32:41.085Z,50.40
2022-09-10T07:33:49.843Z,50.40
2022-09-10T07:34:52.566Z,50.30
2022-09-10T07:35:56.826Z,50.70
2022-09-10T07:36:59.291Z,50.40
2022-09-10T07:38:01.797Z,50.20
2022-09-10T07:39:04.515Z,50.20
2022-09-10T07:40:10.337Z,50.30
2022-09-10T07:41:14.083Z,50.30
2022-09-10T07:42:17.115Z,50.10
2022-09-10T07:43:20.905Z,50.20
2022-09-10T07:44:23.427Z,50.30
2022-09-10T07:45:26.793Z,50.20
2022-09-10T07:46:30.296Z,50.30
2022-09-10T07:47:33.428Z,50.30
2022-09-10T07:48:37.498Z,50.40
2022-09-10T07:49:41.940Z,50.80
2022-09-10T07:50:45.563Z,50.40
2022-09-10T07:51:57.638Z,50.40
2022-09-10T07:53:05.375Z,50.50
2022-09-10T07:54:07.702Z,50.20
2022-09-10T07:55:18.276Z,50.20
2022-09-10T07:56:20.942Z,50.30
2022-09-10T07:57:24.074Z,50.30
2022-09-10T07:58:27.416Z,50.20
2022-09-10T07:59:30.020Z,50.40
2022-09-10T08:00:35.541Z,50.30
2022-09-10T08:01:42.018Z,49.60
2022-09-10T08:02:44.665Z,49.60
2022-09-10T08:03:56.340Z,49.80
2022-09-10T08:04:58.783Z,49.70
2022-09-10T08:06:02.680Z,49.90
2022-09-10T08:07:05.309Z,49.90
2022-09-10T08:08:10.421Z,50.00
2022-09-10T08:09:14.804Z,50.00
2022-09-10T08:10:24.357Z,49.80
2022-09-10T08:11:27.581Z,49.80
2022-09-10T08:12:33.627Z,50.30
2022-09-10T08:13:36.824Z,49.60
2022-09-10T08:14:39.566Z,49.60
2022-09-10T08:15:44.537Z,49.50
2022-09-10T08:16:47.081Z,49.60
2022-09-10T08:17:49.871Z,49.70
2022-09-10T08:18:56.857Z,49.40
2022-09-10T08:20:01.232Z,49.40
2022-09-10T08:21:04.591Z,49.40
2022-09-10T08:22:12.825Z,49.10
2022-09-10T08:23:20.336Z,49.10
2022-09-10T08:24:23.468Z,49.30
2022-09-10T08:25:26.150Z,49.80
2022-09-10T08:26:29.292Z,50.10
2022-09-10T08:27:35.168Z,49.80
2022-09-10T08:28:39.999Z,49.60
2022-09-10T08:29:43.332Z,49.80
2022-09-10T08:31:05.018Z,50.10
2022-09-10T08:32:09.734Z,49.90
2022-09-10T08:33:12.287Z,49.10
2022-09-10T08:34:15.449Z,49.40
2022-09-10T08:35:22.545Z,49.70
2022-09-10T08:36:26.267Z,49.60
2022-09-10T08:37:31.379Z,49.70
2022-09-10T08:38:40.035Z,49.50
2022-09-10T08:39:44.436Z,49.70
2022-09-10T08:40:49.144Z,49.60
2022-09-10T08:41:55.268Z,49.30
2022-09-10T08:43:01.416Z,49.40
2022-09-10T08:44:12.570Z,50.00
2022-09-10T08:45:15.015Z,49.70
2022-09-10T08:46:43.909Z,49.80
2022-09-10T08:48:08.805Z,50.40
2022-09-10T08:49:31.641Z,50.00
2022-09-10T08:50:46.651Z,49.60
2022-09-10T08:51:55.018Z,50.00
2022-09-10T08:53:05.570Z,49.80
2022-09-10T08:54:13.446Z,49.70
2022-09-10T08:55:21.952Z,49.50
2022-09-10T08:56:27.078Z,49.80
2022-09-10T08:57:34.782Z,49.70
2022-09-10T08:58:37.632Z,49.80
2022-09-10T08:59:44.786Z,49.90
2022-09-10T09:00:48.754Z,49.90
2022-09-10T09:01:56.900Z,49.70
2022-09-10T09:03:03.506Z,49.70
2022-09-10T09:04:16.931Z,49.80
2022-09-10T09:05:25.899Z,49.70
2022-09-10T09:06:33.504Z,49.50
2022-09-10T09:07:39.514Z,49.80
2022-09-10T09:08:49.437Z,50.10
2022-09-10T09:09:57.092Z,49.30
2022-09-10T09:11:06.201Z,49.60
2022-09-10T09:12:17.545Z,49.40
2022-09-10T09:13:39.030Z,49.80
2022-09-10T09:14:48.014Z,49.50
2022-09-10T09:15:56.164Z,49.50
2022-09-10T09:17:06.126Z,49.40
2022-09-10T09:18:28.230Z,49.40
2022-09-10T09:19:34.970Z,49.50
2022-09-10T09:20:44.767Z,49.50
2022-09-10T09:21:55.715Z,49.40
2022-09-10T09:23:22.274Z,49.20
2022-09-10T09:24:44.676Z,49.60
2022-09-10T09:26:10.478Z,49.50
2022-09-10T09:27:17.862Z,49.40
2022-09-10T09:28:36.657Z,49.60
2022-09-10T09:29:57.735Z,49.60
2022-09-10T09:31:06.331Z,49.40
2022-09-10T09:32:13.793Z,49.30
2022-09-10T09:33:18.412Z,49.30
2022-09-10T09:34:32.547Z,49.70
2022-09-10T09:35:49.058Z,49.70
2022-09-10T09:36:53.972Z,49.90
2022-09-10T09:38:17.922Z,50.00
2022-09-10T09:39:42.778Z,50.00
2022-09-10T09:40:49.525Z,50.00
2022-09-10T09:41:57.420Z,49.70
2022-09-10T09:43:09.544Z,49.50
2022-09-10T09:44:16.234Z,49.70
2022-09-10T09:45:18.829Z,49.70
2022-09-10T09:46:21.872Z,49.70
2022-09-10T09:47:26.795Z,49.50
2022-09-10T09:48:34.516Z,49.50
2022-09-10T09:49:37.150Z,49.40
2022-09-10T09:50:41.907Z,49.60
2022-09-10T09:51:48.120Z,49.50
2022-09-10T09:52:53.820Z,49.50
2022-09-10T09:54:34.433Z,49.80
2022-09-10T09:55:34.934Z,49.80
2022-09-10T09:56:39.255Z,49.70
2022-09-10T09:57:42.673Z,49.90
2022-09-10T09:58:49.358Z,50.00
2022-09-10T09:59:51.754Z,50.00
2022-09-10T10:01:06.026Z,49.40
2022-09-10T10:02:16.592Z,49.60
2022-09-10T10:03:24.948Z,49.50
2022-09-10T10:04:31.001Z,49.60
2022-09-10T10:05:33.207Z,49.50
2022-09-10T10:06:46.744Z,49.60
2022-09-10T10:07:49.026Z,49.60
2022-09-10T10:09:05.094Z,49.90
2022-09-10T10:10:07.770Z,49.40
2022-09-10T10:11:12.242Z,49.40
2022-09-10T10:12:20.836Z,49.50
2022-09-10T10:13:23.064Z,49.50
2022-09-10T10:14:25.262Z,49.50
2022-09-10T10:15:36.609Z,49.60
2022-09-10T10:16:38.992Z,49.50
2022-09-10T10:17:41.338Z,49.60
2022-09-10T10:18:44.364Z,49.50
2022-09-10T10:19:56.924Z,49.70
2022-09-10T10:21:25.551Z,49.70
2022-09-10T10:22:30.225Z,49.50
2022-09-10T10:23:36.643Z,49.50
2022-09-10T10:24:38.846Z,49.70
2022-09-10T10:25:41.518Z,49.30
2022-09-10T10:26:46.550Z,49.20
2022-09-10T10:27:51.239Z,49.40
2022-09-10T10:28:56.265Z,49.20
2022-09-10T10:30:04.372Z,49.30
2022-09-10T10:31:07.261Z,49.10
2022-09-10T10:32:15.877Z,48.90
2022-09-10T10:33:19.334Z,48.70
2022-09-10T10:34:37.862Z,49.00
2022-09-10T10:35:52.194Z,48.90
2022-09-10T10:37:08.220Z,48.90
2022-09-10T10:38:20.064Z,49.00
2022-09-10T10:39:28.013Z,49.10
2022-09-10T10:40:34.021Z,49.20
2022-09-10T10:41:46.174Z,49.20
2022-09-10T10:42:51.135Z,49.30
2022-09-10T10:43:53.480Z,49.40
2022-09-10T10:45:25.278Z,49.60
2022-09-10T10:46:37.326Z,49.70
2022-09-10T10:47:46.259Z,49.60
2022-09-10T10:48:51.477Z,49.60
2022-09-10T10:50:05.872Z,49.60
2022-09-10T10:51:09.404Z,49.30
2022-09-10T10:52:11.636Z,49.30
2022-09-10T10:53:17.106Z,49.50
2022-09-10T10:54:19.245Z,49.50
2022-09-10T10:55:25.771Z,49.50
2022-09-10T10:56:31.246Z,49.10
2022-09-10T10:57:48.513Z,49.20
2022-09-10T10:58:56.772Z,49.00
2022-09-10T11:00:01.040Z,49.30
2022-09-10T11:01:06.511Z,49.40
2022-09-10T11:02:14.825Z,49.50
2022-09-10T11:03:37.581Z,49.50
2022-09-10T11:04:50.545Z,49.80
2022-09-10T11:05:58.520Z,49.70
2022-09-10T11:07:08.335Z,49.20
2022-09-10T11:08:15.051Z,49.30
2022-09-10T11:09:25.600Z,49.60
2022-09-10T11:10:31.403Z,50.20
2022-09-10T11:11:54.292Z,50.40
2022-09-10T11:13:14.817Z,50.30
2022-09-10T11:14:17.034Z,50.30
2022-09-10T11:15:29.402Z,50.50
2022-09-10T11:16:38.444Z,50.50
2022-09-10T11:17:51.798Z,50.90
2022-09-10T11:18:58.106Z,50.50
2022-09-10T11:20:24.745Z,50.00
2022-09-10T11:21:42.530Z,50.00
2022-09-10T11:22:48.903Z,50.00
2022-09-10T11:23:56.855Z,49.50
2022-09-10T11:25:15.654Z,49.90
2022-09-10T11:26:36.823Z,49.60
2022-09-10T11:27:41.893Z,49.70
2022-09-10T11:28:55.535Z,49.10
2022-09-10T11:30:11.291Z,49.40
2022-09-10T11:31:30.401Z,49.20
2022-09-10T11:32:55.359Z,49.50
2022-09-10T11:33:59.759Z,49.60
2022-09-10T11:35:07.034Z,49.30
2022-09-10T11:36:16.147Z,49.10
2022-09-10T11:37:22.428Z,48.80
2022-09-10T11:38:28.026Z,48.70
2022-09-10T11:39:34.481Z,49.00
2022-09-10T11:40:56.219Z,48.00
2022-09-10T11:42:01.073Z,48.10
2022-09-10T11:43:07.551Z,48.10
2022-09-10T11:44:16.377Z,48.40
2022-09-10T11:45:23.124Z,48.40
2022-09-10T11:46:25.971Z,48.50
2022-09-10T11:47:33.280Z,48.90
2022-09-10T11:49:03.615Z,48.70
2022-09-10T11:50:10.332Z,48.50
2022-09-10T11:51:28.106Z,48.50
2022-09-10T11:52:31.252Z,48.10
2022-09-10T11:53:34.292Z,48.10
2022-09-10T11:54:38.960Z,47.90
2022-09-10T11:55:50.486Z,48.50
2022-09-10T11:56:55.780Z,48.30
2022-09-10T11:58:00.922Z,47.70
2022-09-10T11:59:06.062Z,47.80
2022-09-10T12:00:09.233Z,47.60
2022-09-10T12:01:18.064Z,47.40
2022-09-10T12:02:38.545Z,47.30
2022-09-10T12:04:00.224Z,47.00
2022-09-10T12:05:05.521Z,47.10
2022-09-10T12:06:17.381Z,46.90
2022-09-10T12:07:35.173Z,47.50
2022-09-10T12:08:43.818Z,47.00
2022-09-10T12:09:55.277Z,47.50
2022-09-10T12:11:05.686Z,46.60
2022-09-10T12:12:10.745Z,46.70
2022-09-10T12:13:13.834Z,46.80
2022-09-10T12:14:18.169Z,46.50
2022-09-10T12:15:22.919Z,46.10
2022-09-10T12:16:32.835Z,46.00
2022-09-10T12:17:39.410Z,45.90
2022-09-10T12:18:45.038Z,46.70
2022-09-10T12:19:49.214Z,46.70
2022-09-10T12:20:53.764Z,46.60
2022-09-10T12:22:01.726Z,46.70
2022-09-10T12:23:04.795Z,46.90
2022-09-10T12:24:22.887Z,46.80
2022-09-10T12:25:29.341Z,46.10
2022-09-10T12:26:42.547Z,45.80
2022-09-10T12:27:50.902Z,45.90
2022-09-10T12:28:53.279Z,45.90
2022-09-10T12:29:55.552Z,46.20
2022-09-10T12:31:01.281Z,46.30
2022-09-10T12:32:09.772Z,45.80
2022-09-10T12:33:12.071Z,45.90
2022-09-10T12:34:15.969Z,45.90
2022-09-10T12:35:34.581Z,46.40
2022-09-10T12:36:36.885Z,46.40
2022-09-10T12:37:39.202Z,45.80
2022-09-10T12:38:44.309Z,45.90
2022-09-10T12:39:46.777Z,45.80
2022-09-10T12:40:49.616Z,45.90
2022-09-10T12:41:52.461Z,45.90
2022-09-10T12:43:18.226Z,45.80
2022-09-10T12:44:36.013Z,45.80
2022-09-10T12:46:04.314Z,46.40
2022-09-10T12:47:29.876Z,45.60
2022-09-10T12:48:34.371Z,46.00
2022-09-10T12:49:43.886Z,45.80
2022-09-10T12:50:50.858Z,45.60
2022-09-10T12:51:59.952Z,45.70
2022-09-10T12:53:14.848Z,45.70
2022-09-10T12:54:17.118Z,46.10
2022-09-10T12:55:36.222Z,45.90
2022-09-10T12:57:12.823Z,46.10
2022-09-10T12:58:33.144Z,46.10
2022-09-10T12:59:35.556Z,45.80
2022-09-10T13:00:46.724Z,45.30
2022-09-10T13:01:51.439Z,45.40
2022-09-10T13:03:08.222Z,45.60
2022-09-10T13:04:25.985Z,45.70
2022-09-10T13:05:51.515Z,45.50
2022-09-10T13:06:55.257Z,45.50
2022-09-10T13:08:18.730Z,46.10
2022-09-10T13:09:22.594Z,46.30
2022-09-10T13:10:26.339Z,46.50
2022-09-10T13:11:30.125Z,46.40
2022-09-10T13:12:33.392Z,46.20
2022-09-10T13:13:54.732Z,46.30
2022-09-10T13:14:57.594Z,46.40
2022-09-10T13:16:00.385Z,46.40
2022-09-10T13:17:03.550Z,46.50
2022-09-10T13:18:08.629Z,46.50
2022-09-10T13:19:13.764Z,46.40
2022-09-10T13:20:22.099Z,46.50
2022-09-10T13:21:24.975Z,46.60
2022-09-10T13:22:31.300Z,46.50
2022-09-10T13:23:44.575Z,46.60
2022-09-10T13:25:07.150Z,46.70
2022-09-10T13:26:28.234Z,46.70
2022-09-10T13:27:33.496Z,46.90
2022-09-10T13:28:36.860Z,46.70
2022-09-10T13:29:47.030Z,46.90
2022-09-10T13:30:58.264Z,46.80
2022-09-10T13:32:02.756Z,46.70
2022-09-10T13:33:05.582Z,46.50
2022-09-10T13:34:14.183Z,46.60
2022-09-10T13:35:19.728Z,46.80
2022-09-10T13:36:22.135Z,46.60
2022-09-10T13:37:24.300Z,46.70
2022-09-10T13:38:39.098Z,46.80
2022-09-10T13:39:54.612Z,46.60
2022-09-10T13:41:06.380Z,46.70
2022-09-10T13:42:14.226Z,46.70
2022-09-10T13:43:28.278Z,46.30
2022-09-10T13:44:30.997Z,46.70
2022-09-10T13:45:49.872Z,46.60
2022-09-10T13:46:55.004Z,46.70
2022-09-10T13:48:01.218Z,46.70
2022-09-10T13:49:19.284Z,46.70
2022-09-10T13:50:26.240Z,46.60
2022-09-10T13:51:47.070Z,46.60
2022-09-10T13:52:50.069Z,46.60
2022-09-10T13:53:52.951Z,46.50
2022-09-10T13:54:56.427Z,46.70
2022-09-10T13:56:00.293Z,46.70
2022-09-10T13:57:17.925Z,46.60
2022-09-10T13:58:21.137Z,46.10
2022-09-10T13:59:26.144Z,45.90
2022-09-10T14:00:46.828Z,46.60
2022-09-10T14:01:53.645Z,47.20
2022-09-10T14:02:57.343Z,48.20
2022-09-10T14:04:00.144Z,48.20
2022-09-10T14:05:02.294Z,48.70
2022-09-10T14:06:08.410Z,48.60
2022-09-10T14:07:15.985Z,48.90
2022-09-10T14:08:23.320Z,49.30
2022-09-10T14:09:26.067Z,49.90
2022-09-10T14:10:28.497Z,49.90
2022-09-10T14:11:33.089Z,49.60
2022-09-10T14:12:35.638Z,50.00
2022-09-10T14:13:40.180Z,50.00
2022-09-10T14:14:44.547Z,50.30
2022-09-10T14:15:47.070Z,50.70
2022-09-10T14:16:51.519Z,50.50
2022-09-10T14:17:55.784Z,51.20
2022-09-10T14:18:59.418Z,51.20
2022-09-10T14:20:17.932Z,51.30